Terminal Aerodrome Forecast
Issued by NWS

Home | Current Version | Previous Version | Text Only | Print | Product List | Glossary On
Versions: 1 2 3 4 5 6 7 8 9 10 11 12 13 14 15 16 17 18 19 20 21 22 23 24 25 26 27 28
000
FTUS43 KJKL 031313 AAA
TAFSJS
TAF AMD
KSJS 031313Z 0313/0412 00000KT 4SM BR OVC002
     FM031500 VRB03KT P6SM OVC006
     FM031800 VRB03KT P6SM BKN015
     FM032000 VRB05KT P6SM VCSH BKN025 BKN140
     FM040200 00000KT 4SM BR BKN015=

USA.gov is the U.S. government's official web portal to all federal, state and local government web resources and services.